Airfield :
LOGIN :

Register | Disclaimer

   EN    FR    IT 

 










Legend :    VFR   Marginal VFR   IFR   Intensive IFR   Very Intensive IFR
Visi :
Ceiling :
>= 8 km
>= 3000ft
5 to 8 km
1000 to 3000 ft
1500m to 5 km
500 to 1000 ft
800 to 1500m
200 to 500 ft
< 800m
< 200 ft
Symbols :   Thunderstorms  Fog  Heavy snow  Heavy precipitations  Wind > 20 kt
SIGMETs :     Misc.  Thunderstorms  Icing  Turbulence  Mountain Waves  Volcanic Ashes






- Airport Elevation : 16 ft
- IATA code : SDR


LEXJ - Santander Cantabria

CURRENT METAR :
  • 040400Z VRB02KT CAVOK 13/13 Q1024

EXPIRED METARs :
  • 040330Z 00000KT CAVOK 13/12 Q1024
  • 040300Z AUTO 00000KT 5000 BR NCD 13/13 Q1024
  • 040230Z AUTO 00000KT 8000 NCD 14/13 Q1024
  • 040200Z AUTO 00000KT 6000 NCD 13/12 Q1024
  • 040130Z AUTO 00000KT 7000 NCD 14/13 Q1024

TAF TAF LEXJ
Valid from the 04 at 03:00 until the 05 at 03:00 UTC


040200Z 0403/0503 VRB06KT 9999 FEW040 TX22/0414Z TN12/0405Z
PROB40
TEMPO 0411/0417 02010KT



MET'MAP, your aeronautical weather chart ! - Copyright ORBIFLY December 2007 - Disclaimer

ORBIFLY MET'MAP TEAM :

Programming & Development : Alexandra Zaïnal
Concept & original design : Baudouin d'Aumeries
Assistance for programming : Marc-Olivier Méhu
Technical & hardware support : Manuel Goepfert

Contact : metmap@orbifly.com




SOURCES & CREDITS :

   NOAA